Creek Data

    Home     View Charts     View Raw Data     Messages

ID Distance Battery Voltage Battery Current Internal Temp Internal Humidity External Temp Solar Input rssi snr Time Stamp Record
34244 15.1 4.07 0 63 40 56 5.1 -76 8 03/06/2025 05:15 PM 15966
34243 15.2 4.02 0 65 39 57 5.1 -75 8 03/06/2025 05:00 PM 15965
34242 15.2 4.02 0 66 38 57 5.1 -74 8 03/06/2025 04:45 PM 15964
34241 15.2 4.02 0 66 39 57 5.1 -75 7 03/06/2025 04:30 PM 15963
34240 15.2 4.02 0 68 37 57 5.1 -75 8 03/06/2025 04:15 PM 15962
34239 15.2 4.02 0 67 38 57 5.1 -75 8 03/06/2025 04:00 PM 15961
34238 15.3 4.03 0 68 37 58 5.1 -77 8 03/06/2025 03:45 PM 15960
34237 15.3 4.02 0 68 38 57 5.1 -75 7 03/06/2025 03:30 PM 15959
34236 15.3 4.09 0 69 37 58 5.1 -74 8 03/06/2025 03:15 PM 15958
34235 15.2 4.11 0 69 36 57 5.1 -75 8 03/06/2025 03:00 PM 15957
34234 15.3 4.02 0 70 35 57 5.1 -75 8 03/06/2025 02:45 PM 15956
34233 15.3 4.02 0 69 36 58 5.1 -76 8 03/06/2025 02:30 PM 15955
34232 15.4 4.02 0 72 34 57 5.1 -76 8 03/06/2025 02:15 PM 15954
34231 15.4 4.08 0 68 35 57 5.1 -76 8 03/06/2025 02:00 PM 15953
34230 15.2 4.02 0 65 37 59 5.1 -75 8 03/06/2025 01:45 PM 15952
34229 15.2 4.12 0 59 41 54 5.1 -77 8 03/06/2025 01:30 PM 15951
34228 15.2 4.02 0 62 39 55 5.1 -77 7 03/06/2025 01:15 PM 15950
34227 15.3 4.02 0 66 37 54 5.1 -77 8 03/06/2025 01:00 PM 15949
34226 15.3 4.02 0 66 37 57 5.1 -77 8 03/06/2025 12:45 PM 15948
34225 15.3 4.02 0 64 38 57 5.1 -77 7 03/06/2025 12:30 PM 15947
34224 15.3 4.10 0 65 37 56 5.1 -77 7 03/06/2025 12:15 PM 15946
34223 15.3 4.02 0 65 36 57 5.1 -77 8 03/06/2025 12:00 PM 15945
34222 15.3 4.02 0 64 36 58 5.1 -77 8 03/06/2025 11:45 AM 15944
34221 15.3 4.02 0 63 36 56 5.1 -77 7 03/06/2025 11:30 AM 15943
34220 15.3 4.02 0 59 37 53 5.1 -77 8 03/06/2025 11:15 AM 15942